Airfield :
LOGIN :

Register | Disclaimer

   EN    FR    IT 

 










Legend :    VFR   Marginal VFR   IFR   Intensive IFR   Very Intensive IFR
Visi :
Ceiling :
>= 8 km
>= 3000ft
5 to 8 km
1000 to 3000 ft
1500m to 5 km
500 to 1000 ft
800 to 1500m
200 to 500 ft
< 800m
< 200 ft
Symbols :   Thunderstorms  Fog  Heavy snow  Heavy precipitations  Wind > 20 kt
SIGMETs :     Misc.  Thunderstorms  Icing  Turbulence  Mountain Waves  Volcanic Ashes






- Airport Elevation : 2555 ft
- IATA code : ADJ


OJAM - Marka Int.

CURRENT METAR :
  • 042000Z 27006KT 7000 NSC 25/09 Q1010 NOSIG

EXPIRED METARs :
  • 041900Z 26012KT 7000 NSC 26/09 Q1009 NOSIG
  • 041800Z 27012KT 7000 NSC 26/10 Q1009 NOSIG

TAF TAF OJAM
Valid from the 04 at 18:00 until the 06 at 00:00 UTC


041651Z 0418/0524 28010KT 6000 NSC
PROB30
TEMPO 0512/0518 30015KT 5000 BLDU
OJAC FIR / Asia



MET'MAP, your aeronautical weather chart ! - Copyright ORBIFLY December 2007 - Disclaimer

ORBIFLY MET'MAP TEAM :

Programming & Development : Alexandra Zaïnal
Concept & original design : Baudouin d'Aumeries
Assistance for programming : Marc-Olivier Méhu
Technical & hardware support : Manuel Goepfert

Contact : metmap@orbifly.com




SOURCES & CREDITS :

   NOAA